Time;durP1;ratioP1;P1;durP2;ratioP2;P2;SDS_P1;SDS_P2;PMS_P1;PMS_P2;Temp;Humidity;BMP_temperature;BMP_pressure;BME280_temperature;BME280_humidity;BME280_pressure;Samples;Min_cycle;Max_cycle;Signal;HPM_P1;HPM_P2
2023/01/21 00:02:16;;;;;;;0.10;0.10;;;;;;;;;;7374810;19;20160;-68
2023/01/21 00:04:45;;;;;;;0.13;0.13;;;;;;;;;;7376673;19;20212;-68
2023/01/21 00:07:17;;;;;;;0.10;0.10;;;;;;;;;;7376281;19;20133;-68
2023/01/21 00:09:46;;;;;;;0.10;0.10;;;;;;;;;;7375965;19;20145;-68
2023/01/21 00:12:14;;;;;;;0.20;0.20;;;;;;;;;;7374807;19;20224;-67
2023/01/21 00:14:43;;;;;;;0.10;0.10;;;;;;;;;;7375922;19;20154;-68
2023/01/21 00:17:12;;;;;;;0.15;0.15;;;;;;;;;;7375860;19;20141;-68
2023/01/21 00:19:41;;;;;;;0.20;0.20;;;;;;;;;;7374616;19;20161;-68
2023/01/21 00:22:11;;;;;;;0.10;0.10;;;;;;;;;;7375639;19;20208;-67
2023/01/21 00:24:42;;;;;;;0.15;0.15;;;;;;;;;;7374345;19;20183;-68
2023/01/21 00:27:11;;;;;;;0.17;0.17;;;;;;;;;;7375803;19;20145;-68
2023/01/21 00:29:40;;;;;;;0.13;0.13;;;;;;;;;;7375397;19;20144;-69
2023/01/21 00:32:09;;;;;;;0.20;0.20;;;;;;;;;;7375815;19;20141;-68
2023/01/21 00:34:38;;;;;;;0.20;0.20;;;;;;;;;;7374882;19;20190;-68
2023/01/21 00:37:07;;;;;;;0.17;0.17;;;;;;;;;;7374891;19;20256;-68
2023/01/21 00:39:41;;;;;;;0.17;0.17;;;;;;;;;;7374476;19;20648;-68
2023/01/21 00:42:12;;;;;;;0.20;0.20;;;;;;;;;;7377520;19;20158;-69
2023/01/21 00:44:41;;;;;;;0.17;0.17;;;;;;;;;;7373122;19;20519;-68
2023/01/21 00:47:10;;;;;;;0.10;0.10;;;;;;;;;;7374467;19;20158;-68
2023/01/21 00:49:39;;;;;;;0.10;0.10;;;;;;;;;;7375904;19;20134;-68
2023/01/21 00:52:08;;;;;;;0.20;0.20;;;;;;;;;;7374491;19;20230;-68
2023/01/21 00:54:37;;;;;;;0.10;0.10;;;;;;;;;;7375340;19;20750;-68
2023/01/21 00:57:06;;;;;;;0.15;0.15;;;;;;;;;;7373908;19;20167;-69
2023/01/21 00:59:38;;;;;;;0.10;0.10;;;;;;;;;;7372518;19;20156;-68
2023/01/21 01:02:07;;;;;;;0.10;0.10;;;;;;;;;;7375376;19;20141;-68
2023/01/21 01:04:36;;;;;;;0.10;0.10;;;;;;;;;;7373165;19;20216;-68
2023/01/21 01:07:05;;;;;;;0.10;0.10;;;;;;;;;;7373327;19;20140;-68
2023/01/21 01:09:34;;;;;;;0.20;0.20;;;;;;;;;;7376251;19;20133;-68
2023/01/21 01:12:02;;;;;;;0.10;0.10;;;;;;;;;;7375971;19;20212;-67
2023/01/21 01:14:32;;;;;;;0.20;0.20;;;;;;;;;;7374351;19;20200;-69
2023/01/21 01:17:03;;;;;;;0.20;0.20;;;;;;;;;;7374131;19;20157;-68
2023/01/21 01:19:32;;;;;;;0.10;0.10;;;;;;;;;;7376055;19;20163;-68
2023/01/21 01:22:01;;;;;;;0.17;0.17;;;;;;;;;;7373317;19;20168;-68
2023/01/21 01:24:30;;;;;;;0.20;0.20;;;;;;;;;;7372815;19;20153;-68
2023/01/21 01:26:59;;;;;;;0.10;0.10;;;;;;;;;;7375302;19;20132;-68
2023/01/21 01:29:28;;;;;;;0.20;0.20;;;;;;;;;;7376093;19;20149;-68
2023/01/21 01:31:57;;;;;;;0.10;0.10;;;;;;;;;;7375656;19;20141;-68
2023/01/21 01:34:29;;;;;;;0.10;0.10;;;;;;;;;;7373117;19;20140;-68
2023/01/21 01:36:58;;;;;;;0.10;0.10;;;;;;;;;;7383436;19;20138;-68
2023/01/21 01:39:27;;;;;;;0.20;0.20;;;;;;;;;;7379535;19;20553;-68
2023/01/21 01:41:56;;;;;;;0.20;0.20;;;;;;;;;;7381548;19;20182;-68
2023/01/21 01:44:39;;;;;;;0.10;0.10;;;;;;;;;;7379339;19;20156;-68
2023/01/21 01:47:08;;;;;;;0.10;0.10;;;;;;;;;;7380796;19;20152;-68
2023/01/21 01:49:40;;;;;;;0.10;0.10;;;;;;;;;;7381894;19;20137;-68
2023/01/21 01:52:10;;;;;;;0.20;0.20;;;;;;;;;;7381327;19;20193;-69
2023/01/21 01:54:43;;;;;;;0.10;0.10;;;;;;;;;;7379751;19;20156;-68
2023/01/21 01:57:14;;;;;;;0.10;0.10;;;;;;;;;;7380131;19;20153;-68
2023/01/21 01:59:44;;;;;;;0.20;0.20;;;;;;;;;;7375572;19;20162;-68
2023/01/21 02:02:16;;;;;;;0.20;0.20;;;;;;;;;;7379389;19;20215;-68
2023/01/21 02:04:49;;;;;;;0.20;0.20;;;;;;;;;;7379184;19;20192;-68
2023/01/21 02:07:19;;;;;;;0.13;0.13;;;;;;;;;;7380700;19;20212;-68
2023/01/21 02:09:49;;;;;;;0.10;0.10;;;;;;;;;;7381965;19;20150;-68
2023/01/21 02:12:18;;;;;;;0.15;0.15;;;;;;;;;;7380802;19;20208;-68
2023/01/21 02:14:48;;;;;;;0.15;0.15;;;;;;;;;;7380406;19;20159;-69
2023/01/21 02:17:25;;;;;;;0.20;0.20;;;;;;;;;;7380139;19;20132;-68
2023/01/21 02:20:13;;;;;;;0.20;0.20;;;;;;;;;;7380121;19;20225;-68
2023/01/21 02:22:46;;;;;;;0.10;0.10;;;;;;;;;;7377325;19;20152;-68
2023/01/21 02:25:27;;;;;;;0.20;0.20;;;;;;;;;;7378341;19;20157;-68
2023/01/21 02:28:07;;;;;;;0.17;0.17;;;;;;;;;;7376875;19;20232;-68
2023/01/21 02:30:43;;;;;;;0.10;0.10;;;;;;;;;;7378824;19;20153;-67
2023/01/21 02:33:34;;;;;;;0.10;0.10;;;;;;;;;;7378103;19;20408;-68
2023/01/21 02:36:09;;;;;;;0.10;0.10;;;;;;;;;;7378504;19;20144;-68
2023/01/21 02:38:41;;;;;;;0.10;0.10;;;;;;;;;;7376690;19;20188;-68
2023/01/21 02:41:16;;;;;;;0.10;0.10;;;;;;;;;;7377106;19;20215;-68
2023/01/21 02:43:49;;;;;;;0.10;0.10;;;;;;;;;;7377494;19;20199;-68
2023/01/21 02:46:21;;;;;;;0.10;0.10;;;;;;;;;;7376994;19;20185;-68
2023/01/21 02:48:56;;;;;;;0.10;0.10;;;;;;;;;;7376966;19;20176;-68
2023/01/21 02:51:26;;;;;;;0.10;0.10;;;;;;;;;;7377779;19;20157;-68
2023/01/21 02:53:54;;;;;;;0.10;0.10;;;;;;;;;;7380420;19;20148;-68
2023/01/21 02:56:26;;;;;;;0.20;0.20;;;;;;;;;;7379097;19;20145;-67
2023/01/21 02:58:57;;;;;;;0.13;0.13;;;;;;;;;;7378799;19;20149;-68
2023/01/21 03:01:31;;;;;;;0.10;0.10;;;;;;;;;;7375728;19;20164;-68
2023/01/21 03:04:09;;;;;;;0.10;0.10;;;;;;;;;;7378087;19;20212;-68
2023/01/21 03:06:43;;;;;;;0.10;0.10;;;;;;;;;;7379005;19;20139;-68
2023/01/21 03:09:18;;;;;;;0.20;0.20;;;;;;;;;;7379384;19;20176;-68
2023/01/21 03:11:50;;;;;;;0.15;0.15;;;;;;;;;;7379018;19;20132;-68
2023/01/21 03:17:07;;;;;;;0.10;0.10;;;;;;;;;;7380372;19;20167;-68
2023/01/21 03:19:42;;;;;;;0.10;0.10;;;;;;;;;;7379301;19;20149;-67
2023/01/21 03:22:12;;;;;;;0.20;0.20;;;;;;;;;;7379022;19;20129;-68
2023/01/21 03:24:42;;;;;;;0.10;0.10;;;;;;;;;;7378339;19;20141;-68
2023/01/21 03:27:12;;;;;;;0.10;0.10;;;;;;;;;;7377871;19;20156;-67
2023/01/21 03:29:42;;;;;;;0.20;0.20;;;;;;;;;;7379651;19;20317;-67
2023/01/21 03:32:13;;;;;;;0.10;0.10;;;;;;;;;;7379109;19;20154;-67
2023/01/21 03:34:46;;;;;;;0.20;0.20;;;;;;;;;;7379254;19;20141;-67
2023/01/21 03:37:17;;;;;;;0.20;0.20;;;;;;;;;;7378732;19;20141;-67
2023/01/21 03:39:48;;;;;;;0.15;0.15;;;;;;;;;;7377951;19;20128;-68
2023/01/21 03:42:17;;;;;;;0.10;0.10;;;;;;;;;;7376579;19;20189;-68
2023/01/21 03:44:47;;;;;;;0.20;0.20;;;;;;;;;;7375062;19;20161;-68
2023/01/21 03:47:19;;;;;;;0.10;0.10;;;;;;;;;;7373733;19;20152;-68
2023/01/21 03:49:52;;;;;;;0.15;0.15;;;;;;;;;;7375741;19;20224;-68
2023/01/21 03:52:22;;;;;;;0.10;0.10;;;;;;;;;;7376071;19;20188;-69
2023/01/21 03:54:51;;;;;;;0.10;0.10;;;;;;;;;;7377306;19;20140;-68
2023/01/21 03:57:20;;;;;;;0.10;0.10;;;;;;;;;;7373342;19;20178;-68
2023/01/21 03:59:48;;;;;;;0.20;0.20;;;;;;;;;;7376900;19;20185;-68
2023/01/21 04:02:19;;;;;;;0.10;0.10;;;;;;;;;;7374578;19;20144;-68
2023/01/21 04:04:48;;;;;;;0.20;0.20;;;;;;;;;;7376008;19;20159;-68
2023/01/21 04:07:19;;;;;;;0.10;0.10;;;;;;;;;;7377283;19;20137;-68
2023/01/21 04:09:48;;;;;;;0.10;0.10;;;;;;;;;;7377174;19;20162;-68
2023/01/21 04:12:17;;;;;;;0.20;0.20;;;;;;;;;;7375762;19;20216;-68
2023/01/21 04:14:46;;;;;;;0.20;0.20;;;;;;;;;;7376352;19;20145;-68
2023/01/21 04:17:15;;;;;;;0.20;0.20;;;;;;;;;;7376427;19;20154;-68
2023/01/21 04:19:44;;;;;;;0.10;0.10;;;;;;;;;;7374541;19;20152;-68
2023/01/21 04:22:13;;;;;;;0.10;0.10;;;;;;;;;;7373341;19;20161;-68
2023/01/21 04:24:44;;;;;;;0.17;0.17;;;;;;;;;;7375934;19;20136;-68
2023/01/21 04:27:13;;;;;;;0.15;0.15;;;;;;;;;;7376992;19;20200;-68
2023/01/21 04:29:42;;;;;;;0.17;0.17;;;;;;;;;;7376281;19;20157;-68
2023/01/21 04:32:11;;;;;;;0.20;0.20;;;;;;;;;;7376873;19;20137;-68
2023/01/21 04:34:40;;;;;;;0.10;0.10;;;;;;;;;;7376259;19;20196;-67
2023/01/21 04:37:09;;;;;;;0.20;0.20;;;;;;;;;;7375029;19;20562;-68
2023/01/21 04:39:38;;;;;;;0.10;0.10;;;;;;;;;;7374027;19;20152;-68
2023/01/21 04:42:09;;;;;;;0.15;0.15;;;;;;;;;;7374561;19;20212;-69
2023/01/21 04:44:38;;;;;;;0.10;0.10;;;;;;;;;;7373740;19;20234;-68
2023/01/21 04:47:07;;;;;;;0.10;0.10;;;;;;;;;;7376048;19;20137;-69
2023/01/21 04:49:36;;;;;;;0.20;0.20;;;;;;;;;;7374034;19;20582;-68
2023/01/21 04:52:05;;;;;;;0.10;0.10;;;;;;;;;;7374494;19;20160;-68
2023/01/21 04:54:33;;;;;;;0.20;0.20;;;;;;;;;;7371641;19;20789;-69
2023/01/21 04:57:02;;;;;;;0.10;0.10;;;;;;;;;;7376513;19;20129;-68
2023/01/21 04:59:34;;;;;;;0.20;0.20;;;;;;;;;;7373090;19;20148;-68
2023/01/21 05:02:03;;;;;;;0.10;0.10;;;;;;;;;;7374118;19;20153;-68
2023/01/21 05:04:31;;;;;;;0.20;0.20;;;;;;;;;;7372225;19;20166;-68
2023/01/21 05:07:00;;;;;;;0.20;0.20;;;;;;;;;;7373990;19;20163;-67
2023/01/21 05:09:29;;;;;;;0.10;0.10;;;;;;;;;;7373610;19;20182;-68
2023/01/21 05:11:58;;;;;;;0.20;0.20;;;;;;;;;;7373577;19;20165;-68
2023/01/21 05:14:27;;;;;;;0.10;0.10;;;;;;;;;;7373533;19;20315;-68
2023/01/21 05:17:00;;;;;;;0.20;0.20;;;;;;;;;;7373304;19;20145;-69
2023/01/21 05:19:29;;;;;;;0.13;0.13;;;;;;;;;;7374924;19;20147;-67
2023/01/21 05:21:58;;;;;;;0.20;0.20;;;;;;;;;;7370538;19;20195;-67
2023/01/21 05:24:27;;;;;;;0.20;0.20;;;;;;;;;;7374362;19;20140;-68
2023/01/21 05:26:56;;;;;;;0.20;0.20;;;;;;;;;;7374293;19;20140;-66
2023/01/21 05:29:25;;;;;;;0.10;0.10;;;;;;;;;;7373184;19;20231;-67
2023/01/21 05:31:54;;;;;;;0.17;0.17;;;;;;;;;;7370687;19;20635;-68
2023/01/21 05:34:25;;;;;;;0.20;0.20;;;;;;;;;;7370652;19;20184;-68
2023/01/21 05:36:54;;;;;;;0.15;0.15;;;;;;;;;;7371502;19;20169;-67
2023/01/21 05:39:23;;;;;;;0.15;0.15;;;;;;;;;;7370276;19;20265;-68
2023/01/21 05:41:52;;;;;;;0.20;0.20;;;;;;;;;;7371154;19;20167;-69
2023/01/21 05:44:21;;;;;;;0.20;0.20;;;;;;;;;;7372918;19;20140;-67
2023/01/21 05:46:50;;;;;;;0.20;0.20;;;;;;;;;;7372821;19;20220;-68
2023/01/21 05:49:19;;;;;;;0.10;0.10;;;;;;;;;;7371372;19;20157;-68
2023/01/21 05:51:50;;;;;;;0.20;0.20;;;;;;;;;;7373937;19;20145;-67
2023/01/21 05:54:19;;;;;;;0.20;0.20;;;;;;;;;;7372760;19;20637;-68
2023/01/21 05:56:48;;;;;;;0.15;0.15;;;;;;;;;;7374245;19;20141;-68
2023/01/21 05:59:17;;;;;;;0.20;0.20;;;;;;;;;;7371324;19;20182;-67
2023/01/21 06:01:46;;;;;;;0.10;0.10;;;;;;;;;;7370989;19;20165;-67
2023/01/21 06:04:15;;;;;;;0.10;0.10;;;;;;;;;;7372110;19;20157;-67
2023/01/21 06:06:44;;;;;;;0.15;0.15;;;;;;;;;;7373571;19;20158;-70
2023/01/21 06:09:15;;;;;;;0.20;0.20;;;;;;;;;;7370958;19;20244;-68
2023/01/21 06:11:44;;;;;;;0.20;0.20;;;;;;;;;;7373463;19;20149;-68
2023/01/21 06:14:13;;;;;;;0.20;0.20;;;;;;;;;;7371941;19;20157;-68
2023/01/21 06:16:42;;;;;;;0.20;0.20;;;;;;;;;;7373797;19;20164;-68
2023/01/21 06:19:11;;;;;;;0.15;0.15;;;;;;;;;;7370713;19;20149;-67
2023/01/21 06:21:40;;;;;;;0.10;0.10;;;;;;;;;;7373571;19;20618;-68
2023/01/21 06:24:09;;;;;;;0.10;0.10;;;;;;;;;;7380096;19;20153;-67
2023/01/21 06:26:41;;;;;;;0.10;0.10;;;;;;;;;;7379905;19;20173;-68
2023/01/21 06:29:10;;;;;;;0.10;0.10;;;;;;;;;;7378796;19;20177;-68
2023/01/21 06:31:39;;;;;;;0.20;0.20;;;;;;;;;;7379944;19;20165;-68
2023/01/21 06:34:08;;;;;;;0.15;0.15;;;;;;;;;;7379585;19;20129;-68
2023/01/21 06:36:37;;;;;;;0.20;0.20;;;;;;;;;;7378929;19;20228;-67
2023/01/21 06:39:06;;;;;;;0.20;0.20;;;;;;;;;;7374298;19;20177;-68
2023/01/21 06:41:34;;;;;;;0.10;0.10;;;;;;;;;;7377919;19;20145;-68
2023/01/21 06:44:06;;;;;;;0.20;0.20;;;;;;;;;;7377580;19;20144;-67
2023/01/21 06:46:35;;;;;;;0.20;0.20;;;;;;;;;;7380742;19;20137;-68
2023/01/21 06:49:04;;;;;;;0.10;0.10;;;;;;;;;;7376117;19;20215;-68
2023/01/21 06:51:33;;;;;;;0.20;0.20;;;;;;;;;;7378983;19;20154;-68
2023/01/21 06:54:02;;;;;;;0.10;0.10;;;;;;;;;;7379704;19;20137;-68
2023/01/21 06:56:31;;;;;;;0.10;0.10;;;;;;;;;;7377170;19;20234;-66
2023/01/21 06:59:00;;;;;;;0.10;0.10;;;;;;;;;;7377815;19;20164;-68
2023/01/21 07:01:32;;;;;;;0.20;0.20;;;;;;;;;;7377781;19;20141;-67
2023/01/21 07:04:02;;;;;;;0.20;0.20;;;;;;;;;;7379845;19;20222;-68
2023/01/21 07:06:31;;;;;;;0.20;0.20;;;;;;;;;;7378979;19;20149;-68
2023/01/21 07:09:00;;;;;;;0.20;0.20;;;;;;;;;;7377495;19;20160;-68
2023/01/21 07:11:28;;;;;;;0.15;0.15;;;;;;;;;;7379065;19;20137;-68
2023/01/21 07:13:58;;;;;;;0.17;0.17;;;;;;;;;;7379423;19;20153;-66
2023/01/21 07:16:27;;;;;;;0.20;0.20;;;;;;;;;;7378667;19;20153;-69
2023/01/21 07:18:59;;;;;;;0.10;0.10;;;;;;;;;;7375963;19;20981;-69
2023/01/21 07:21:28;;;;;;;0.20;0.20;;;;;;;;;;7377833;19;20137;-67
2023/01/21 07:23:57;;;;;;;0.20;0.20;;;;;;;;;;7378930;19;20152;-66
2023/01/21 07:26:26;;;;;;;0.20;0.20;;;;;;;;;;7377437;19;20235;-69
2023/01/21 07:28:55;;;;;;;0.10;0.10;;;;;;;;;;7376887;19;20148;-70
2023/01/21 07:31:27;;;;;;;0.20;0.20;;;;;;;;;;7378425;19;20145;-69
2023/01/21 07:33:58;;;;;;;0.13;0.13;;;;;;;;;;7373577;19;20215;-69
2023/01/21 07:36:27;;;;;;;0.20;0.20;;;;;;;;;;7378090;19;20153;-69
2023/01/21 07:38:56;;;;;;;0.20;0.20;;;;;;;;;;7378057;19;20237;-70
2023/01/21 07:41:25;;;;;;;0.20;0.20;;;;;;;;;;7375042;19;20156;-69
2023/01/21 07:43:54;;;;;;;0.20;0.20;;;;;;;;;;7377266;19;20141;-70
2023/01/21 07:46:25;;;;;;;0.10;0.10;;;;;;;;;;7377534;19;20151;-69
2023/01/21 07:48:54;;;;;;;0.20;0.20;;;;;;;;;;7375175;19;20177;-70
2023/01/21 07:51:26;;;;;;;0.10;0.10;;;;;;;;;;7375079;19;20164;-67
2023/01/21 07:53:57;;;;;;;0.17;0.17;;;;;;;;;;7378342;19;20133;-67
2023/01/21 07:56:26;;;;;;;0.20;0.20;;;;;;;;;;7377759;19;20137;-67
2023/01/21 07:58:55;;;;;;;0.15;0.15;;;;;;;;;;7377328;19;20153;-67
2023/01/21 08:01:29;;;;;;;0.20;0.20;;;;;;;;;;7376979;19;20141;-67
2023/01/21 08:03:58;;;;;;;0.20;0.20;;;;;;;;;;7376694;19;20137;-67
2023/01/21 08:06:30;;;;;;;0.20;0.20;;;;;;;;;;7375489;19;20212;-67
2023/01/21 08:08:58;;;;;;;0.20;0.20;;;;;;;;;;7375895;19;20152;-67
2023/01/21 08:11:27;;;;;;;0.10;0.10;;;;;;;;;;7376728;19;20162;-67
2023/01/21 08:13:56;;;;;;;0.10;0.10;;;;;;;;;;7374590;19;20252;-68
2023/01/21 08:16:25;;;;;;;0.10;0.10;;;;;;;;;;7372191;19;20156;-67
2023/01/21 08:18:54;;;;;;;0.20;0.20;;;;;;;;;;7373127;19;20219;-67
2023/01/21 08:21:23;;;;;;;0.20;0.20;;;;;;;;;;7376449;19;20188;-67
2023/01/21 08:23:55;;;;;;;0.10;0.10;;;;;;;;;;7376784;19;20137;-67
2023/01/21 08:26:24;;;;;;;0.20;0.20;;;;;;;;;;7376584;19;20238;-67
2023/01/21 08:28:55;;;;;;;0.10;0.10;;;;;;;;;;7373402;19;20229;-67
2023/01/21 08:31:24;;;;;;;0.10;0.10;;;;;;;;;;7375379;19;20121;-67
2023/01/21 08:33:53;;;;;;;0.20;0.20;;;;;;;;;;7373602;19;20173;-68
2023/01/21 08:36:22;;;;;;;0.15;0.15;;;;;;;;;;7374220;19;20216;-67
2023/01/21 08:38:54;;;;;;;0.10;0.10;;;;;;;;;;7375817;19;20170;-66
2023/01/21 08:41:25;;;;;;;0.10;0.10;;;;;;;;;;7376361;19;20209;-67
2023/01/21 08:43:54;;;;;;;0.17;0.17;;;;;;;;;;7374132;19;20208;-67
2023/01/21 08:46:23;;;;;;;0.20;0.20;;;;;;;;;;7375391;19;20159;-67
2023/01/21 08:48:52;;;;;;;0.10;0.10;;;;;;;;;;7373307;19;20156;-67
2023/01/21 08:51:21;;;;;;;0.10;0.10;;;;;;;;;;7374230;19;20152;-66
2023/01/21 08:53:50;;;;;;;0.20;0.20;;;;;;;;;;7373775;19;20215;-66
2023/01/21 08:56:19;;;;;;;0.10;0.10;;;;;;;;;;7373741;19;20160;-67
2023/01/21 08:58:55;;;;;;;0.10;0.10;;;;;;;;;;7372689;19;20184;-66
2023/01/21 09:01:25;;;;;;;0.10;0.10;;;;;;;;;;7374825;19;20204;-67
2023/01/21 09:03:57;;;;;;;0.20;0.20;;;;;;;;;;7372427;19;20132;-67
2023/01/21 09:06:26;;;;;;;0.10;0.10;;;;;;;;;;7373852;19;20156;-67
2023/01/21 09:08:55;;;;;;;0.10;0.10;;;;;;;;;;7375084;19;20244;-67
2023/01/21 09:11:24;;;;;;;0.10;0.10;;;;;;;;;;7375252;19;20153;-67
2023/01/21 09:13:56;;;;;;;0.10;0.10;;;;;;;;;;7374578;19;20228;-67
2023/01/21 09:16:25;;;;;;;0.20;0.20;;;;;;;;;;7373456;19;20153;-67
2023/01/21 09:18:55;;;;;;;0.10;0.10;;;;;;;;;;7374518;19;20178;-67
2023/01/21 09:21:25;;;;;;;0.10;0.10;;;;;;;;;;7372305;19;20227;-66
2023/01/21 09:23:53;;;;;;;0.10;0.10;;;;;;;;;;7373824;19;20128;-68
2023/01/21 09:26:23;;;;;;;0.20;0.20;;;;;;;;;;7374606;19;20137;-67
2023/01/21 09:28:57;;;;;;;0.20;0.20;;;;;;;;;;7373235;19;20243;-67
2023/01/21 09:31:27;;;;;;;0.10;0.10;;;;;;;;;;7375220;19;20204;-67
2023/01/21 09:33:57;;;;;;;0.10;0.10;;;;;;;;;;7375130;19;20154;-68
2023/01/21 09:36:27;;;;;;;0.10;0.10;;;;;;;;;;7374071;19;20136;-67
2023/01/21 09:38:56;;;;;;;0.10;0.10;;;;;;;;;;7372065;19;20190;-67
2023/01/21 09:41:27;;;;;;;0.15;0.15;;;;;;;;;;7372571;19;20153;-68
2023/01/21 09:44:01;;;;;;;0.10;0.10;;;;;;;;;;7372196;19;20209;-66
2023/01/21 09:46:34;;;;;;;0.10;0.10;;;;;;;;;;7373643;19;20137;-67
2023/01/21 09:49:05;;;;;;;0.10;0.10;;;;;;;;;;7373180;19;20149;-66
2023/01/21 09:51:40;;;;;;;0.20;0.20;;;;;;;;;;7373804;19;20199;-66
2023/01/21 09:54:13;;;;;;;0.13;0.13;;;;;;;;;;7373971;19;20630;-67
2023/01/21 09:56:45;;;;;;;0.10;0.10;;;;;;;;;;7378498;19;20224;-66
2023/01/21 09:59:21;;;;;;;0.20;0.20;;;;;;;;;;7379616;19;20236;-67
2023/01/21 10:01:50;;;;;;;0.10;0.10;;;;;;;;;;7382094;19;20137;-66
2023/01/21 10:04:30;;;;;;;0.20;0.20;;;;;;;;;;7375631;19;20208;-66
2023/01/21 10:07:01;;;;;;;0.10;0.10;;;;;;;;;;7380227;19;20149;-66
2023/01/21 10:09:40;;;;;;;0.10;0.10;;;;;;;;;;7378539;19;20173;-65
2023/01/21 10:12:17;;;;;;;0.20;0.20;;;;;;;;;;7380673;19;20187;-66
2023/01/21 10:14:53;;;;;;;0.10;0.10;;;;;;;;;;7380015;19;20220;-66
2023/01/21 10:17:28;;;;;;;0.13;0.13;;;;;;;;;;7380267;19;20140;-66
2023/01/21 10:20:08;;;;;;;0.10;0.10;;;;;;;;;;7381535;19;20729;-66
2023/01/21 10:22:37;;;;;;;0.10;0.10;;;;;;;;;;7379627;19;20228;-66
2023/01/21 10:25:09;;;;;;;0.10;0.10;;;;;;;;;;7379084;19;20152;-66
2023/01/21 10:27:39;;;;;;;0.20;0.20;;;;;;;;;;7378388;19;20666;-65
2023/01/21 10:30:22;;;;;;;0.10;0.10;;;;;;;;;;7380884;19;20536;-66
2023/01/21 10:32:52;;;;;;;0.10;0.10;;;;;;;;;;7379241;19;20160;-66
2023/01/21 10:35:25;;;;;;;0.20;0.20;;;;;;;;;;7380116;19;20236;-66
2023/01/21 10:37:59;;;;;;;0.20;0.20;;;;;;;;;;7377038;19;20760;-67
2023/01/21 10:43:16;;;;;;;0.13;0.13;;;;;;;;;;7379180;19;20679;-66
2023/01/21 10:45:54;;;;;;;0.10;0.10;;;;;;;;;;7380381;19;20693;-66
2023/01/21 10:48:27;;;;;;;0.10;0.10;;;;;;;;;;7378236;19;20148;-66
2023/01/21 10:50:58;;;;;;;0.10;0.10;;;;;;;;;;7379020;19;20757;-66
2023/01/21 10:53:31;;;;;;;0.10;0.10;;;;;;;;;;7379863;19;20145;-65
2023/01/21 10:56:09;;;;;;;0.10;0.10;;;;;;;;;;7379691;19;20229;-67
2023/01/21 10:58:40;;;;;;;0.10;0.10;;;;;;;;;;7378179;19;20161;-67
2023/01/21 11:01:14;;;;;;;0.15;0.15;;;;;;;;;;7380918;19;20204;-65
2023/01/21 11:03:45;;;;;;;0.20;0.20;;;;;;;;;;7377098;19;20169;-66
2023/01/21 11:06:15;;;;;;;0.10;0.10;;;;;;;;;;7379120;19;20209;-66
2023/01/21 11:08:47;;;;;;;0.10;0.10;;;;;;;;;;7376336;19;20705;-65
2023/01/21 11:11:17;;;;;;;0.10;0.10;;;;;;;;;;7377688;19;20231;-66
2023/01/21 11:13:45;;;;;;;0.10;0.10;;;;;;;;;;7379373;19;20209;-66
2023/01/21 11:16:32;;;;;;;0.20;0.20;;;;;;;;;;7376728;19;20681;-66
2023/01/21 11:19:01;;;;;;;0.10;0.10;;;;;;;;;;7378183;19;21512;-66
2023/01/21 11:21:30;;;;;;;0.10;0.10;;;;;;;;;;7376866;19;20654;-66
2023/01/21 11:23:59;;;;;;;0.10;0.10;;;;;;;;;;7375707;19;20796;-67
2023/01/21 11:26:29;;;;;;;0.10;0.10;;;;;;;;;;7378295;19;20757;-66
2023/01/21 11:29:11;;;;;;;0.10;0.10;;;;;;;;;;7376213;19;20786;-66
2023/01/21 11:31:43;;;;;;;0.10;0.10;;;;;;;;;;7377793;19;20732;-66
2023/01/21 11:34:15;;;;;;;0.20;0.20;;;;;;;;;;7377226;19;20689;-66
2023/01/21 11:36:58;;;;;;;0.20;0.20;;;;;;;;;;7376452;19;20690;-67
2023/01/21 11:39:27;;;;;;;0.10;0.10;;;;;;;;;;7375529;19;20682;-66
2023/01/21 11:41:56;;;;;;;0.20;0.20;;;;;;;;;;7378565;19;20607;-65
2023/01/21 11:44:25;;;;;;;0.10;0.10;;;;;;;;;;7375185;19;20714;-67
2023/01/21 11:46:57;;;;;;;0.10;0.10;;;;;;;;;;7378597;19;21020;-65
2023/01/21 11:49:31;;;;;;;0.10;0.10;;;;;;;;;;7373227;19;20736;-66
2023/01/21 11:52:15;;;;;;;0.10;0.10;;;;;;;;;;7378514;19;20594;-66
2023/01/21 11:54:45;;;;;;;0.10;0.10;;;;;;;;;;7374632;19;20615;-66
2023/01/21 11:57:26;;;;;;;0.10;0.10;;;;;;;;;;7376597;19;20783;-66
2023/01/21 11:59:56;;;;;;;0.20;0.20;;;;;;;;;;7377670;19;20607;-66
2023/01/21 12:02:30;;;;;;;0.10;0.10;;;;;;;;;;7376972;19;20718;-66
2023/01/21 12:05:01;;;;;;;0.10;0.10;;;;;;;;;;7375951;19;20700;-66
2023/01/21 12:07:31;;;;;;;0.10;0.10;;;;;;;;;;7375048;19;20733;-66
2023/01/21 12:10:04;;;;;;;0.10;0.10;;;;;;;;;;7375694;19;20611;-67
2023/01/21 12:12:36;;;;;;;0.10;0.10;;;;;;;;;;7377854;19;20567;-66
2023/01/21 12:15:10;;;;;;;0.10;0.10;;;;;;;;;;7375137;19;20631;-67
2023/01/21 12:17:46;;;;;;;0.10;0.10;;;;;;;;;;7373273;19;20650;-66
2023/01/21 12:20:24;;;;;;;0.20;0.20;;;;;;;;;;7375052;19;20671;-66
2023/01/21 12:23:08;;;;;;;0.10;0.10;;;;;;;;;;7376209;19;20607;-67
2023/01/21 12:25:42;;;;;;;0.10;0.10;;;;;;;;;;7374050;19;20623;-66
2023/01/21 12:28:29;;;;;;;0.20;0.20;;;;;;;;;;7374414;19;20798;-66
2023/01/21 12:31:03;;;;;;;0.10;0.10;;;;;;;;;;7375005;19;21413;-66
2023/01/21 12:33:43;;;;;;;0.10;0.10;;;;;;;;;;7373676;19;20679;-66
2023/01/21 12:36:15;;;;;;;0.10;0.10;;;;;;;;;;7374925;19;21418;-66
2023/01/21 12:38:45;;;;;;;0.10;0.10;;;;;;;;;;7371544;19;20674;-67
2023/01/21 12:41:16;;;;;;;0.10;0.10;;;;;;;;;;7375197;19;20627;-66
2023/01/21 12:43:47;;;;;;;0.10;0.10;;;;;;;;;;7371017;19;20623;-67
2023/01/21 12:46:19;;;;;;;0.10;0.10;;;;;;;;;;7374715;19;20622;-66
2023/01/21 12:48:53;;;;;;;0.10;0.10;;;;;;;;;;7372098;19;20666;-65
2023/01/21 12:51:24;;;;;;;0.10;0.10;;;;;;;;;;7374427;19;20686;-66
2023/01/21 12:53:56;;;;;;;0.10;0.10;;;;;;;;;;7372481;19;20623;-67
2023/01/21 12:56:28;;;;;;;0.10;0.10;;;;;;;;;;7372563;19;20626;-66
2023/01/21 12:59:00;;;;;;;0.20;0.20;;;;;;;;;;7372497;19;20643;-66
2023/01/21 13:01:43;;;;;;;0.20;0.20;;;;;;;;;;7373914;19;20749;-66
2023/01/21 13:04:22;;;;;;;0.20;0.20;;;;;;;;;;7372694;19;20631;-66
2023/01/21 13:06:56;;;;;;;0.00;0.00;;;;;;;;;;7374578;19;20679;-66
2023/01/21 13:09:32;;;;;;;0.10;0.10;;;;;;;;;;7372760;19;20654;-66
2023/01/21 13:12:03;;;;;;;0.10;0.10;;;;;;;;;;7379755;19;20619;-66
2023/01/21 13:14:36;;;;;;;0.20;0.20;;;;;;;;;;7383713;19;20679;-66
2023/01/21 13:17:07;;;;;;;0.13;0.13;;;;;;;;;;7382689;19;20611;-65
2023/01/21 13:19:38;;;;;;;0.10;0.10;;;;;;;;;;7373380;19;20630;-67
2023/01/21 13:22:11;;;;;;;0.10;0.10;;;;;;;;;;7373552;19;20626;-66
2023/01/21 13:24:48;;;;;;;0.10;0.10;;;;;;;;;;7373102;19;20701;-66
2023/01/21 13:27:20;;;;;;;0.10;0.10;;;;;;;;;;7375874;19;20635;-66
2023/01/21 13:29:52;;;;;;;0.10;0.10;;;;;;;;;;7372675;19;20627;-65
2023/01/21 13:32:33;;;;;;;0.10;0.10;;;;;;;;;;7374073;19;20644;-66
2023/01/21 13:35:14;;;;;;;0.10;0.10;;;;;;;;;;7374105;19;20718;-66
2023/01/21 13:37:46;;;;;;;0.10;0.10;;;;;;;;;;7375220;19;20619;-66
2023/01/21 13:40:24;;;;;;;0.10;0.10;;;;;;;;;;7373637;19;20676;-66
2023/01/21 13:42:58;;;;;;;0.10;0.10;;;;;;;;;;7375239;19;20728;-66
2023/01/21 13:45:30;;;;;;;0.10;0.10;;;;;;;;;;7371012;19;20652;-66
2023/01/21 13:48:09;;;;;;;0.10;0.10;;;;;;;;;;7372409;19;20658;-66
2023/01/21 13:50:52;;;;;;;0.20;0.20;;;;;;;;;;7371996;19;20721;-66
2023/01/21 13:53:28;;;;;;;0.10;0.10;;;;;;;;;;7374253;19;20741;-66
2023/01/21 13:56:04;;;;;;;0.10;0.10;;;;;;;;;;7372566;19;20689;-66
2023/01/21 13:58:37;;;;;;;0.10;0.10;;;;;;;;;;7371166;19;20749;-65
2023/01/21 14:01:10;;;;;;;0.10;0.10;;;;;;;;;;7373054;19;20591;-65
2023/01/21 14:03:41;;;;;;;0.10;0.10;;;;;;;;;;7372760;19;21090;-65
2023/01/21 14:06:17;;;;;;;0.10;0.10;;;;;;;;;;7371752;19;20656;-66
2023/01/21 14:08:47;;;;;;;0.10;0.10;;;;;;;;;;7370671;19;20693;-65
2023/01/21 14:11:20;;;;;;;0.10;0.10;;;;;;;;;;7373287;19;20640;-66
2023/01/21 14:14:02;;;;;;;0.10;0.10;;;;;;;;;;7372121;19;21348;-65
2023/01/21 14:16:35;;;;;;;0.10;0.10;;;;;;;;;;7373349;19;20713;-65
2023/01/21 14:19:09;;;;;;;0.10;0.10;;;;;;;;;;7370915;19;21413;-65
2023/01/21 14:21:51;;;;;;;0.10;0.10;;;;;;;;;;7371914;19;20675;-66
2023/01/21 14:24:28;;;;;;;0.10;0.10;;;;;;;;;;7370054;19;20745;-65
2023/01/21 14:27:05;;;;;;;0.10;0.10;;;;;;;;;;7373799;19;20607;-66
2023/01/21 14:29:37;;;;;;;0.10;0.10;;;;;;;;;;7374200;19;20671;-65
2023/01/21 14:32:10;;;;;;;0.10;0.10;;;;;;;;;;7373227;19;20628;-66
2023/01/21 14:34:45;;;;;;;0.10;0.10;;;;;;;;;;7372805;19;20611;-66
2023/01/21 14:37:17;;;;;;;0.10;0.10;;;;;;;;;;7372691;19;20714;-66
2023/01/21 14:39:51;;;;;;;0.10;0.10;;;;;;;;;;7369986;19;20603;-65
2023/01/21 14:42:25;;;;;;;0.10;0.10;;;;;;;;;;7374721;19;20726;-65
2023/01/21 14:45:04;;;;;;;0.10;0.10;;;;;;;;;;7378479;19;20611;-66
2023/01/21 14:47:43;;;;;;;0.10;0.10;;;;;;;;;;7375912;19;20710;-65
2023/01/21 14:50:12;;;;;;;0.10;0.10;;;;;;;;;;7377219;19;20741;-66
2023/01/21 14:52:46;;;;;;;0.10;0.10;;;;;;;;;;7377600;19;20634;-66
2023/01/21 14:55:28;;;;;;;0.10;0.10;;;;;;;;;;7376080;19;20610;-66
2023/01/21 14:57:59;;;;;;;0.10;0.10;;;;;;;;;;7379454;19;20737;-66
2023/01/21 15:00:31;;;;;;;0.10;0.10;;;;;;;;;;7379351;19;20583;-67
2023/01/21 15:03:10;;;;;;;0.20;0.20;;;;;;;;;;7376730;19;21429;-66
2023/01/21 15:05:39;;;;;;;0.10;0.10;;;;;;;;;;7377407;19;20642;-67
2023/01/21 15:08:15;;;;;;;0.10;0.10;;;;;;;;;;7379450;19;20662;-68
2023/01/21 15:10:44;;;;;;;0.10;0.10;;;;;;;;;;7377438;19;20690;-66
2023/01/21 15:13:26;;;;;;;0.10;0.10;;;;;;;;;;7378077;19;20690;-66
2023/01/21 15:16:07;;;;;;;0.10;0.10;;;;;;;;;;7379834;19;20594;-66